Time;durP1;ratioP1;P1;durP2;ratioP2;P2;SDS_P1;SDS_P2;PMS_P1;PMS_P2;Temp;Humidity;BMP_temperature;BMP_pressure;BME280_temperature;BME280_humidity;BME280_pressure;Samples;Min_cycle;Max_cycle;Signal;HPM_P1;HPM_P2
2022/06/16 00:00:21;;;;;;;9.05;3.45;;;;;;;22.98;37.33;102039.75;5012534;28;20034;-65
2022/06/16 00:02:49;;;;;;;5.57;3.67;;;;;;;23.13;36.35;102046.03;5012594;28;20034;-65
2022/06/16 00:05:19;;;;;;;7.20;3.42;;;;;;;23.13;37.21;102047.97;5012195;28;20053;-64
2022/06/16 00:07:45;;;;;;;6.07;3.92;;;;;;;23.01;37.34;102048.28;5011408;28;20064;-65
2022/06/16 00:10:12;;;;;;;7.13;3.78;;;;;;;23.08;37.23;102046.03;5012139;28;20593;-64
2022/06/16 00:12:38;;;;;;;6.07;3.33;;;;;;;23.09;36.86;102038.66;5012281;28;20366;-67
2022/06/16 00:15:06;;;;;;;8.50;3.50;;;;;;;23.10;37.22;102029.31;5012135;28;20022;-66
2022/06/16 00:17:32;;;;;;;7.00;4.00;;;;;;;23.30;36.49;102019.09;5010757;28;20045;-65
2022/06/16 00:19:57;;;;;;;5.90;3.33;;;;;;;22.83;37.35;102035.16;5015257;28;20034;-65
2022/06/16 00:22:23;;;;;;;6.30;3.70;;;;;;;22.55;37.88;102039.28;5011995;28;20037;-65
2022/06/16 00:24:48;;;;;;;7.13;3.30;;;;;;;22.35;38.76;102041.19;5009780;28;20042;-64
2022/06/16 00:27:13;;;;;;;5.05;3.78;;;;;;;22.28;38.71;102025.06;5011884;28;20034;-66
2022/06/16 00:29:39;;;;;;;14.65;3.55;;;;;;;21.98;39.60;102027.78;5012136;28;20092;-65
2022/06/16 00:32:05;;;;;;;11.20;4.50;;;;;;;22.13;39.08;102026.97;5012454;28;20412;-64
2022/06/16 00:34:31;;;;;;;7.85;3.47;;;;;;;22.37;38.32;102028.03;5011763;28;20046;-65
2022/06/16 00:36:57;;;;;;;5.13;3.10;;;;;;;22.24;39.05;102047.78;5011639;28;20033;-65
2022/06/16 00:39:22;;;;;;;11.25;3.95;;;;;;;22.31;38.43;102056.56;5011239;28;20054;-64
2022/06/16 00:41:47;;;;;;;5.55;3.05;;;;;;;22.26;38.55;102051.91;5011698;28;20521;-65
2022/06/16 00:44:31;;;;;;;7.80;3.42;;;;;;;22.13;38.90;102055.16;5011565;28;20038;-64
2022/06/16 00:46:56;;;;;;;5.97;3.58;;;;;;;22.33;38.38;102051.59;5022532;28;20029;-65
2022/06/16 00:49:23;;;;;;;9.00;3.65;;;;;;;22.39;38.11;102045.84;5031133;28;20084;-65
2022/06/16 00:51:52;;;;;;;5.88;3.55;;;;;;;22.12;38.64;102037.09;5015179;28;20080;-65
2022/06/16 00:54:23;;;;;;;5.57;3.90;;;;;;;22.26;37.87;102034.63;5011433;28;20030;-66
2022/06/16 00:56:51;;;;;;;7.35;3.83;;;;;;;22.20;38.64;102030.25;5011634;28;20519;-65
2022/06/16 00:59:18;;;;;;;6.93;3.53;;;;;;;21.96;38.90;102042.81;5011367;28;20215;-68
2022/06/16 01:01:44;;;;;;;5.28;3.38;;;;;;;21.92;38.74;102045.28;5011670;28;20022;-66
2022/06/16 01:06:56;;;;;;;10.15;3.38;;;;;;;21.76;39.93;102047.13;5011180;28;20409;-65
2022/06/16 01:09:25;;;;;;;9.75;3.42;;;;;;;21.86;39.35;102049.09;5011160;28;20501;-64
2022/06/16 01:15:08;;;;;;;12.00;3.55;;;;;;;21.46;39.63;102063.44;5011093;28;20465;-66
2022/06/16 01:17:48;;;;;;;6.88;3.42;;;;;;;21.78;39.37;102050.41;5011203;28;20125;-65
2022/06/16 01:20:19;;;;;;;6.57;3.40;;;;;;;21.61;40.02;102057.22;5014006;28;20505;-66
2022/06/16 01:23:30;;;;;;;7.18;3.13;;;;;;;21.63;39.56;102060.50;5011466;28;20462;-65
2022/06/16 01:26:16;;;;;;;5.35;3.20;;;;;;;21.58;40.11;102071.44;5011201;28;20046;-65
2022/06/16 01:29:06;;;;;;;5.35;3.10;;;;;;;21.54;39.89;102062.94;5011083;28;20478;-64
2022/06/16 01:31:39;;;;;;;5.93;3.53;;;;;;;21.28;40.54;102060.38;5010930;28;20449;-64
2022/06/16 01:34:20;;;;;;;9.10;3.58;;;;;;;21.22;40.59;102064.16;5010857;28;20092;-66
2022/06/16 01:36:52;;;;;;;5.97;4.00;;;;;;;21.27;40.48;102064.19;5010870;28;20096;-65
2022/06/16 01:39:28;;;;;;;5.68;3.53;;;;;;;21.35;40.45;102066.41;5010448;28;20259;-65
2022/06/16 01:42:03;;;;;;;6.93;3.28;;;;;;;21.25;41.05;102069.09;5009596;28;20037;-65
2022/06/16 01:44:40;;;;;;;3.92;3.05;;;;;;;21.11;41.09;102062.47;5011013;28;20041;-66
2022/06/16 01:47:11;;;;;;;7.00;3.53;;;;;;;21.19;41.25;102053.78;5024438;28;20048;-64
2022/06/16 01:49:44;;;;;;;5.60;3.40;;;;;;;21.08;41.59;102054.78;5030821;28;20117;-65
2022/06/16 01:52:19;;;;;;;8.20;3.72;;;;;;;20.97;41.34;102053.91;5030185;28;20046;-65
2022/06/16 01:54:53;;;;;;;5.10;3.83;;;;;;;20.97;41.71;102062.91;5030398;28;20481;-65
2022/06/16 01:57:33;;;;;;;7.60;4.03;;;;;;;20.92;41.68;102073.00;5030456;28;20113;-64
2022/06/16 02:00:11;;;;;;;7.03;3.53;;;;;;;20.80;41.83;102081.38;5029191;28;20430;-65
2022/06/16 02:02:39;;;;;;;9.38;3.63;;;;;;;20.85;41.98;102077.88;5030455;28;20551;-65
2022/06/16 02:05:13;;;;;;;6.80;3.58;;;;;;;20.81;42.03;102072.09;5031006;28;20037;-65
2022/06/16 02:07:44;;;;;;;5.72;3.70;;;;;;;20.74;42.24;102074.25;5030410;28;20607;-64
2022/06/16 02:10:16;;;;;;;;;;;;;;;20.81;42.02;102085.75;5030768;28;20509;-65
2022/06/16 02:12:56;;;;;;;11.63;3.83;;;;;;;20.86;41.76;102074.88;5030269;28;19943;-65
2022/06/16 02:15:30;;;;;;;6.03;3.63;;;;;;;20.88;41.91;102069.13;5030325;28;20087;-66
2022/06/16 02:17:57;;;;;;;8.55;3.45;;;;;;;20.76;42.34;102079.44;5030250;28;20033;-65
2022/06/16 02:20:27;;;;;;;4.45;2.95;;;;;;;20.78;42.30;102080.81;5029978;28;20017;-64
2022/06/16 02:22:53;;;;;;;4.72;3.42;;;;;;;20.79;42.47;102076.19;5030515;28;20041;-65
2022/06/16 02:25:18;;;;;;;4.45;3.35;;;;;;;20.78;42.56;102080.00;5030293;28;20036;-64
2022/06/16 02:27:43;;;;;;;7.03;3.15;;;;;;;20.73;42.69;102079.97;5030198;28;20037;-65
2022/06/16 02:30:10;;;;;;;8.18;3.40;;;;;;;20.79;42.38;102076.19;5030308;28;20033;-64
2022/06/16 02:32:41;;;;;;;5.10;3.35;;;;;;;20.76;42.57;102082.16;5030295;28;20041;-63
2022/06/16 02:35:19;;;;;;;7.75;3.78;;;;;;;20.74;42.75;102076.13;5030524;28;20532;-64
2022/06/16 02:38:07;;;;;;;8.70;3.50;;;;;;;20.65;43.12;102075.81;5030007;28;20123;-65
2022/06/16 02:40:41;;;;;;;6.88;3.35;;;;;;;20.82;42.54;102083.84;5028671;28;20042;-65
2022/06/16 02:43:42;;;;;;;7.20;3.80;;;;;;;20.75;42.66;102091.47;5024112;28;20548;-65
2022/06/16 02:46:21;;;;;;;4.82;3.17;;;;;;;20.70;42.82;102084.03;5014056;28;20025;-65
2022/06/16 02:49:10;;;;;;;7.88;3.50;;;;;;;20.71;43.09;102102.09;5033501;28;20097;-65
2022/06/16 02:51:43;;;;;;;7.13;3.60;;;;;;;20.54;43.22;102098.66;5033373;28;20041;-64
2022/06/16 02:54:30;;;;;;;10.05;3.58;;;;;;;20.59;43.67;102098.72;5033221;28;20087;-64
2022/06/16 02:57:01;;;;;;;5.32;3.55;;;;;;;20.69;43.19;102095.25;5033519;28;20053;-64
2022/06/16 02:59:34;;;;;;;7.13;4.25;;;;;;;20.53;43.72;102112.59;5033399;28;20421;-66
2022/06/16 03:02:14;;;;;;;9.43;3.88;;;;;;;20.52;43.44;102105.50;5033682;28;20041;-64
2022/06/16 03:04:42;;;;;;;6.80;3.95;;;;;;;20.58;43.29;102101.72;5033410;28;20053;-64
2022/06/16 03:07:10;;;;;;;5.85;3.95;;;;;;;20.50;43.76;102108.47;5032945;28;20428;-64
2022/06/16 03:09:37;;;;;;;6.30;4.18;;;;;;;20.62;43.23;102105.53;5033435;28;20030;-64
2022/06/16 03:12:03;;;;;;;11.45;4.30;;;;;;;20.48;43.99;102113.34;5033028;28;20037;-65
2022/06/16 03:14:29;;;;;;;10.02;4.15;;;;;;;20.44;43.95;102119.63;5033348;28;20144;-66
2022/06/16 03:16:54;;;;;;;10.70;4.65;;;;;;;20.52;43.88;102124.59;5033415;28;20037;-64
2022/06/16 03:19:22;;;;;;;4.95;3.42;;;;;;;20.38;44.38;102123.38;5032479;28;20030;-66
2022/06/16 03:21:47;;;;;;;5.70;3.42;;;;;;;20.43;43.95;102137.06;5032867;28;20033;-64
2022/06/16 03:24:13;;;;;;;11.63;4.10;;;;;;;20.40;44.26;102129.41;5032963;28;20040;-65
2022/06/16 03:26:38;;;;;;;9.02;3.58;;;;;;;20.36;44.13;102140.03;5032673;28;20520;-65
2022/06/16 03:29:04;;;;;;;6.53;3.78;;;;;;;20.39;44.68;102144.97;5033231;28;20543;-65
2022/06/16 03:31:29;;;;;;;8.57;3.75;;;;;;;20.04;45.50;102156.31;5033007;28;20045;-65
2022/06/16 03:33:55;;;;;;;8.48;4.05;;;;;;;20.19;45.37;102152.09;5033006;28;20034;-65
2022/06/16 03:36:20;;;;;;;6.28;4.05;;;;;;;20.30;45.05;102145.69;5032472;28;20076;-66
2022/06/16 03:38:46;;;;;;;6.90;3.97;;;;;;;20.42;45.05;102155.34;5029898;28;20083;-65
2022/06/16 03:41:12;;;;;;;7.82;4.05;;;;;;;20.42;44.95;102149.88;5012768;28;20034;-65
2022/06/16 03:43:39;;;;;;;9.77;4.70;;;;;;;20.51;44.77;102155.72;5013079;28;20389;-64
2022/06/16 03:46:05;;;;;;;7.30;4.07;;;;;;;20.57;44.69;102146.50;5015926;28;20056;-65
2022/06/16 03:48:31;;;;;;;9.73;4.88;;;;;;;20.59;45.03;102150.63;5032447;28;20103;-65
2022/06/16 03:50:57;;;;;;;5.97;4.38;;;;;;;20.42;45.22;102160.00;5032329;28;20060;-64
2022/06/16 03:53:23;;;;;;;8.55;4.05;;;;;;;20.36;45.52;102161.88;5032593;28;20111;-65
2022/06/16 03:55:48;;;;;;;10.77;4.72;;;;;;;20.45;45.28;102154.84;5032706;28;20396;-65
2022/06/16 03:58:14;;;;;;;10.82;3.95;;;;;;;20.52;45.29;102157.38;5032138;28;20045;-63
2022/06/16 04:00:41;;;;;;;8.60;4.15;;;;;;;20.81;44.63;102151.31;5030454;28;20038;-64
2022/06/16 04:05:51;;;;;;;6.15;3.95;;;;;;;20.95;44.44;102157.19;5015953;28;20129;-65
2022/06/16 04:08:19;;;;;;;10.32;4.32;;;;;;;20.71;44.39;102158.63;5031512;28;20041;-65
2022/06/16 04:10:45;;;;;;;12.48;4.50;;;;;;;20.90;44.30;102143.47;5020460;28;20220;-64
2022/06/16 04:13:11;;;;;;;11.63;4.70;;;;;;;20.95;44.47;102146.25;5029592;28;20532;-65
2022/06/16 04:15:36;;;;;;;5.65;3.85;;;;;;;20.89;44.79;102150.84;5031662;28;20501;-65
2022/06/16 04:18:02;;;;;;;11.95;4.72;;;;;;;20.79;44.79;102147.22;5031847;28;20042;-65
2022/06/16 04:20:28;;;;;;;9.88;4.47;;;;;;;20.94;44.35;102148.16;5031182;28;20020;-65
2022/06/16 04:22:53;;;;;;;6.80;3.63;;;;;;;20.69;45.69;102158.91;5030730;28;20045;-64
2022/06/16 04:25:22;;;;;;;9.10;4.25;;;;;;;20.53;45.74;102159.00;5031762;28;20033;-65
2022/06/16 04:27:48;;;;;;;6.22;4.32;;;;;;;20.94;45.39;102167.31;5031622;28;20059;-65
2022/06/16 04:30:16;;;;;;;11.30;4.63;;;;;;;21.09;45.02;102166.59;5031666;28;20040;-64
2022/06/16 04:32:41;;;;;;;8.98;3.88;;;;;;;21.19;44.98;102177.63;5031562;28;20037;-65
2022/06/16 04:35:07;;;;;;;7.25;4.28;;;;;;;21.47;44.22;102185.47;5019854;28;20393;-65
2022/06/16 04:37:33;;;;;;;8.20;4.05;;;;;;;21.69;43.53;102183.41;5011503;28;20080;-65
2022/06/16 04:39:59;;;;;;;10.75;4.28;;;;;;;21.65;44.02;102182.28;5011356;28;20050;-65
2022/06/16 04:42:24;;;;;;;10.18;4.07;;;;;;;21.99;43.39;102171.78;5011934;28;20503;-64
2022/06/16 04:44:49;;;;;;;6.85;3.88;;;;;;;22.06;43.52;102176.97;5011622;28;20034;-66
2022/06/16 04:47:15;;;;;;;7.55;3.95;;;;;;;21.90;43.77;102183.50;5011476;28;20108;-64
2022/06/16 04:49:40;;;;;;;6.32;3.35;;;;;;;22.04;43.49;102180.00;5012002;28;20520;-64
2022/06/16 04:52:06;;;;;;;9.57;3.83;;;;;;;22.03;43.30;102191.22;5011447;28;20057;-65
2022/06/16 04:54:32;;;;;;;5.72;3.60;;;;;;;21.66;43.17;102200.31;5011259;28;20052;-65
2022/06/16 04:56:58;;;;;;;6.22;3.70;;;;;;;21.87;43.15;102209.50;5011248;28;20036;-64
2022/06/16 04:59:23;;;;;;;8.82;4.13;;;;;;;21.73;43.67;102208.31;5011383;28;20390;-65
2022/06/16 05:01:48;;;;;;;11.90;3.92;;;;;;;21.59;43.88;102212.59;5011883;28;20124;-64
2022/06/16 05:04:14;;;;;;;8.27;3.78;;;;;;;21.70;44.04;102214.28;5011410;28;20034;-66
2022/06/16 05:06:40;;;;;;;8.13;3.40;;;;;;;21.72;43.34;102223.06;5018375;28;20106;-64
2022/06/16 05:09:05;;;;;;;10.15;3.53;;;;;;;21.90;43.08;102230.03;5030186;28;20493;-63
2022/06/16 05:11:31;;;;;;;10.93;3.90;;;;;;;21.96;42.71;102218.84;5030837;28;20034;-65
2022/06/16 05:14:00;;;;;;;7.55;3.42;;;;;;;21.72;43.79;102223.91;5031220;28;20033;-65
2022/06/16 05:16:25;;;;;;;6.30;3.42;;;;;;;21.63;44.74;102222.75;5030780;28;20073;-66
2022/06/16 05:18:50;;;;;;;7.05;3.42;;;;;;;21.75;43.89;102236.22;5030536;28;20772;-64
2022/06/16 05:21:16;;;;;;;6.63;3.25;;;;;;;21.85;44.06;102230.84;5014545;28;20045;-65
2022/06/16 05:23:41;;;;;;;12.98;3.40;;;;;;;21.95;43.83;102230.06;5010964;28;20029;-65
2022/06/16 05:26:08;;;;;;;7.18;2.80;;;;;;;22.06;42.78;102235.31;5011124;28;20041;-65
2022/06/16 05:28:36;;;;;;;6.30;3.03;;;;;;;22.04;43.21;102242.97;5024704;28;20044;-65
2022/06/16 05:31:02;;;;;;;6.43;3.20;;;;;;;22.20;43.37;102232.91;5029985;28;20029;-65
2022/06/16 05:33:27;;;;;;;10.65;3.03;;;;;;;22.39;41.85;102226.66;5029025;28;20037;-65
2022/06/16 05:36:00;;;;;;;7.35;3.03;;;;;;;;;;5029477;28;20102;-66
2022/06/16 05:38:25;;;;;;;8.88;3.15;;;;;;;22.65;41.27;102228.41;5027500;28;20025;-65
2022/06/16 05:40:58;;;;;;;7.95;2.97;;;;;;;22.72;42.17;102235.53;5029509;28;20080;-66
2022/06/16 05:43:24;;;;;;;4.20;3.10;;;;;;;22.69;41.92;102234.16;5022540;28;20034;-67
2022/06/16 05:45:49;;;;;;;11.20;2.90;;;;;;;22.69;41.37;102239.63;5028451;28;20517;-64
2022/06/16 05:48:14;;;;;;;6.93;3.03;;;;;;;22.62;42.55;102237.16;5028463;28;20524;-66
2022/06/16 05:50:40;;;;;;;6.40;3.35;;;;;;;22.74;41.61;102247.88;5029481;28;20564;-65
2022/06/16 05:53:05;;;;;;;5.10;2.83;;;;;;;22.78;41.28;102262.66;5030464;28;20038;-65
2022/06/16 05:55:31;;;;;;;5.93;3.83;;;;;;;21.72;43.35;102273.16;5030253;28;20264;-64
2022/06/16 05:57:57;;;;;;;8.27;3.20;;;;;;;22.19;42.22;102281.34;5030419;28;20128;-65
2022/06/16 06:00:22;;;;;;;8.18;3.35;;;;;;;22.62;41.13;102289.22;5030182;28;20409;-65
2022/06/16 06:02:51;;;;;;;7.18;3.10;;;;;;;22.76;41.20;102284.03;5030175;28;20060;-63
2022/06/16 06:05:17;;;;;;;7.13;3.00;;;;;;;22.94;40.47;102278.03;5026478;28;20059;-66
2022/06/16 06:18:21;;;;;;;13.50;3.08;;;;;;;23.18;39.41;102281.91;5029350;28;20405;-65
2022/06/16 06:20:47;;;;;;;6.05;2.40;;;;;;;23.29;39.34;102277.25;5028386;28;20034;-65
2022/06/16 06:23:13;;;;;;;6.07;2.13;;;;;;;23.47;38.26;102276.69;5034115;28;20571;-66
2022/06/16 06:25:39;;;;;;;8.25;2.47;;;;;;;22.95;38.64;102276.97;5032795;28;20060;-65
2022/06/16 06:28:05;;;;;;;3.85;1.90;;;;;;;23.09;39.77;102269.84;5031811;28;20320;-67
2022/06/16 06:30:31;;;;;;;7.47;3.08;;;;;;;23.32;38.52;102272.06;5027847;28;20056;-67
2022/06/16 06:32:58;;;;;;;5.68;1.95;;;;;;;23.64;37.07;102276.41;5031380;28;20087;-66
2022/06/16 06:35:24;;;;;;;6.35;1.80;;;;;;;23.67;37.22;102275.84;5033075;28;20101;-66
2022/06/16 06:37:51;;;;;;;4.78;2.35;;;;;;;23.51;37.46;102275.03;5030468;28;20056;-66
2022/06/16 06:40:37;;;;;;;6.40;1.90;;;;;;;23.40;36.83;102273.41;5029913;28;20080;-66
2022/06/16 06:43:03;;;;;;;6.28;1.70;;;;;;;23.50;37.22;102277.00;5028997;28;20120;-66
2022/06/16 06:45:29;;;;;;;5.68;1.67;;;;;;;23.65;36.86;102272.53;5031878;28;20095;-66
2022/06/16 06:47:55;;;;;;;6.13;2.20;;;;;;;23.81;37.76;102269.50;5033142;28;20064;-67
2022/06/16 06:50:23;;;;;;;12.45;1.90;;;;;;;23.94;36.83;102274.41;5033101;28;20073;-67
2022/06/16 06:52:49;;;;;;;5.00;1.30;;;;;;;23.67;35.74;102284.06;5032909;28;20041;-66
2022/06/16 06:55:15;;;;;;;4.00;1.15;;;;;;;23.88;35.97;102278.25;5032815;28;20585;-66
2022/06/16 06:57:41;;;;;;;3.60;0.85;;;;;;;23.49;35.25;102282.72;5032842;28;20065;-66
2022/06/16 07:00:08;;;;;;;4.13;1.20;;;;;;;23.99;34.04;102279.06;5032847;28;20124;-66
2022/06/16 07:02:33;;;;;;;5.80;0.77;;;;;;;24.20;33.66;102284.22;5033188;28;20043;-66
2022/06/16 07:04:59;;;;;;;2.78;1.00;;;;;;;24.30;32.67;102277.88;5033116;28;20026;-66
2022/06/16 07:07:25;;;;;;;1.85;0.88;;;;;;;23.95;33.67;102280.72;5032555;28;20037;-67
2022/06/16 07:09:50;;;;;;;4.80;1.02;;;;;;;24.35;33.11;102286.91;5032364;28;20444;-67
2022/06/16 07:12:17;;;;;;;3.58;0.77;;;;;;;24.56;32.99;102281.31;5032639;28;20034;-67
2022/06/16 07:14:44;;;;;;;1.90;1.00;;;;;;;24.65;33.04;102274.13;5032820;28;20120;-67
2022/06/16 07:17:10;;;;;;;4.20;0.93;;;;;;;24.56;33.04;102282.13;5032656;28;20031;-66
2022/06/16 07:19:36;;;;;;;3.65;0.63;;;;;;;24.64;32.04;102281.53;5030317;28;20029;-65
2022/06/16 07:22:06;;;;;;;4.95;1.15;;;;;;;24.67;31.50;102286.47;5032527;28;20033;-66
2022/06/16 07:24:33;;;;;;;1.60;0.95;;;;;;;24.77;31.27;102286.44;5032521;28;20030;-66
2022/06/16 07:26:59;;;;;;;3.40;0.85;;;;;;;24.37;31.55;102284.69;5032527;28;20080;-66
2022/06/16 07:29:24;;;;;;;2.17;0.60;;;;;;;24.05;31.29;102286.22;5032267;28;20485;-66
2022/06/16 07:31:50;;;;;;;1.50;0.80;;;;;;;23.44;32.49;102291.81;5032669;28;20034;-67
2022/06/16 07:34:15;;;;;;;2.65;0.70;;;;;;;24.04;32.89;102284.56;5031170;28;20032;-67
2022/06/16 07:36:41;;;;;;;4.35;1.27;;;;;;;24.31;32.84;102287.78;5029434;28;20029;-66
2022/06/16 07:39:07;;;;;;;4.60;0.93;;;;;;;25.08;31.74;102287.84;5031343;28;20045;-66
2022/06/16 07:41:35;;;;;;;4.20;1.10;;;;;;;25.28;31.88;102295.13;5032038;28;20045;-66
2022/06/16 07:44:06;;;;;;;7.07;0.80;;;;;;;24.47;31.98;102297.56;5032557;28;20067;-65
2022/06/16 07:46:32;;;;;;;1.83;0.75;;;;;;;25.34;31.09;102295.88;5032058;28;20095;-65
2022/06/16 07:48:58;;;;;;;3.78;1.05;;;;;;;24.49;31.41;102292.59;5032048;28;20502;-66
2022/06/16 07:51:23;;;;;;;2.67;0.70;;;;;;;24.82;31.14;102300.16;5030861;28;20100;-65
2022/06/16 07:53:49;;;;;;;4.75;0.98;;;;;;;25.48;29.94;102302.41;5030888;28;20038;-66
2022/06/16 07:56:15;;;;;;;2.45;0.80;;;;;;;25.72;29.54;102295.84;5015765;28;20038;-66
2022/06/16 07:58:41;;;;;;;5.30;0.80;;;;;;;25.55;29.85;102300.97;5015194;28;20100;-66
2022/06/16 08:01:07;;;;;;;3.22;0.90;;;;;;;25.39;29.96;102299.44;5016760;28;20033;-67
2022/06/16 08:03:33;;;;;;;3.03;0.90;;;;;;;25.71;30.06;102307.97;5027623;28;20092;-67
2022/06/16 08:05:59;;;;;;;3.33;0.85;;;;;;;25.97;29.34;102303.84;5022066;28;20577;-66
2022/06/16 08:08:26;;;;;;;2.10;0.90;;;;;;;25.98;28.80;102305.47;5031240;28;20034;-66
2022/06/16 08:10:52;;;;;;;3.85;1.05;;;;;;;25.76;29.11;102299.66;5031528;28;20014;-67
2022/06/16 08:13:19;;;;;;;2.05;1.08;;;;;;;26.22;29.04;102301.94;5017415;28;20030;-67
2022/06/16 08:15:45;;;;;;;3.20;1.30;;;;;;;26.09;29.70;102306.22;5031752;28;20042;-67
2022/06/16 08:18:14;;;;;;;2.60;0.60;;;;;;;26.41;29.39;102313.81;5030538;28;20033;-67
2022/06/16 08:20:41;;;;;;;3.05;1.05;;;;;;;26.50;28.71;102310.09;5028288;28;20045;-67
2022/06/16 08:23:07;;;;;;;3.65;0.90;;;;;;;26.48;29.00;102311.50;5031855;28;20091;-66
2022/06/16 08:25:32;;;;;;;3.15;0.70;;;;;;;26.51;29.48;102310.94;5016132;28;20041;-67
2022/06/16 08:27:58;;;;;;;2.58;0.80;;;;;;;26.86;28.31;102324.25;5031413;28;20394;-67
2022/06/16 08:30:24;;;;;;;4.40;1.02;;;;;;;26.32;29.23;102312.84;5017195;28;20036;-67
2022/06/16 08:32:51;;;;;;;2.53;0.63;;;;;;;26.45;29.89;102310.19;5031295;28;20108;-67
2022/06/16 08:35:16;;;;;;;3.90;1.17;;;;;;;25.69;28.85;102310.19;5031257;28;20040;-67
2022/06/16 08:37:42;;;;;;;2.13;0.55;;;;;;;26.07;29.37;102306.50;5022536;28;20025;-66
2022/06/16 08:40:08;;;;;;;5.07;1.08;;;;;;;25.45;29.66;102320.34;5024934;28;20045;-65
2022/06/16 08:42:51;;;;;;;3.00;1.05;;;;;;;26.83;28.61;102314.63;5012846;28;20524;-64
2022/06/16 08:45:19;;;;;;;1.52;0.88;;;;;;;26.76;29.08;102302.31;5010583;28;20526;-66
2022/06/16 08:47:58;;;;;;;1.70;0.70;;;;;;;25.72;30.79;102311.53;5011108;28;20034;-65
2022/06/16 08:50:33;;;;;;;2.88;1.02;;;;;;;25.65;29.85;102311.88;5011264;28;20021;-65
2022/06/16 08:53:06;;;;;;;4.18;0.93;;;;;;;25.81;30.44;102324.38;5011133;28;20029;-66
2022/06/16 08:55:37;;;;;;;3.25;2.00;;;;;;;26.61;28.75;102319.84;5013784;28;20100;-65
2022/06/16 08:58:20;;;;;;;2.85;1.30;;;;;;;26.57;29.15;102321.59;5010755;28;20038;-65
2022/06/16 09:00:49;;;;;;;4.18;1.10;;;;;;;28.96;25.93;102313.06;5020553;28;20075;-64
2022/06/16 09:03:34;;;;;;;5.13;1.58;;;;;;;29.39;25.11;102327.28;5012863;28;20029;-65
2022/06/16 09:06:11;;;;;;;3.13;1.10;;;;;;;28.75;26.03;102325.75;5022910;28;20029;-66
2022/06/16 09:08:57;;;;;;;3.38;1.10;;;;;;;28.85;25.43;102333.00;5016107;28;20044;-65
2022/06/16 09:11:38;;;;;;;2.20;1.02;;;;;;;28.49;24.94;102338.47;5030451;28;20401;-65
2022/06/16 09:17:41;;;;;;;4.18;1.70;;;;;;;28.60;25.87;102340.75;5030109;28;20464;-65
2022/06/16 09:20:15;;;;;;;2.55;0.98;;;;;;;29.08;25.42;102343.78;5026375;28;20037;-65
2022/06/16 09:23:26;;;;;;;2.55;1.60;;;;;;;28.80;25.21;102339.47;5022486;28;20077;-65
2022/06/16 09:26:17;;;;;;;4.07;1.27;;;;;;;28.62;25.26;102338.47;5029182;28;20045;-65
2022/06/16 09:28:46;;;;;;;;;;;;;;;30.00;24.42;102334.81;5030887;28;20120;-66
2022/06/16 09:31:18;;;;;;;4.07;1.50;;;;;;;29.63;25.06;102329.69;5030408;28;19920;-64
2022/06/16 09:33:50;;;;;;;2.50;1.30;;;;;;;30.42;24.55;102333.34;5030216;28;20435;-65
2022/06/16 09:36:24;;;;;;;4.35;1.95;;;;;;;29.58;24.80;102332.63;5029940;28;20547;-66
2022/06/16 09:39:14;;;;;;;10.57;2.30;;;;;;;30.25;24.25;102334.91;5029680;28;20061;-64
2022/06/16 09:44:48;;;;;;;3.13;1.23;;;;;;;30.80;24.11;102340.75;5022076;28;20092;-67
2022/06/16 09:47:21;;;;;;;2.33;1.55;;;;;;;31.08;22.86;102342.13;5026119;28;20041;-66
2022/06/16 09:49:57;;;;;;;8.35;2.30;;;;;;;30.22;24.18;102338.34;5030628;28;20018;-66
2022/06/16 09:52:26;;;;;;;3.78;1.67;;;;;;;30.10;23.57;102340.91;5015876;28;20447;-72
2022/06/16 09:54:57;;;;;;;6.60;2.25;;;;;;;30.61;23.24;102342.22;5013296;28;20494;-72
2022/06/16 09:57:33;;;;;;;3.22;2.00;;;;;;;29.34;25.01;102342.09;5030880;28;20037;-72
2022/06/16 10:00:01;;;;;;;4.82;1.90;;;;;;;30.36;23.81;102345.75;5014383;28;20041;-72
2022/06/16 10:02:37;;;;;;;5.00;1.70;;;;;;;30.77;23.39;102346.97;5014580;28;20494;-71
2022/06/16 10:05:08;;;;;;;3.30;1.80;;;;;;;30.30;24.95;102351.47;5019164;28;20065;-72
2022/06/16 10:07:41;;;;;;;2.85;1.52;;;;;;;30.63;23.94;102351.03;5034375;28;20057;-72
2022/06/16 10:10:42;;;;;;;4.18;1.80;;;;;;;32.05;22.49;102362.75;5033607;28;20033;-71
2022/06/16 10:13:10;;;;;;;4.85;1.80;;;;;;;31.81;22.69;102368.84;5029396;28;20065;-72
2022/06/16 10:15:39;;;;;;;3.95;1.48;;;;;;;31.74;22.84;102376.06;5034355;28;20037;-72
2022/06/16 10:18:06;;;;;;;4.13;1.70;;;;;;;32.29;22.53;102378.84;5034429;28;20569;-72
2022/06/16 10:20:32;;;;;;;3.92;1.48;;;;;;;32.40;23.12;102371.75;5029651;28;20041;-71
2022/06/16 10:23:21;;;;;;;3.50;1.50;;;;;;;32.10;22.13;102370.91;5034668;28;20034;-72
2022/06/16 10:26:07;;;;;;;4.13;1.90;;;;;;;32.33;22.40;102379.81;5033884;28;20041;-72
2022/06/16 10:28:35;;;;;;;4.05;1.90;;;;;;;31.85;23.20;102380.94;5033720;28;20053;-72
2022/06/16 10:31:04;;;;;;;2.63;1.63;;;;;;;31.63;22.84;102383.13;5033683;28;20128;-72
2022/06/16 10:33:33;;;;;;;7.25;2.13;;;;;;;32.33;21.86;102375.06;5033265;28;20249;-71
2022/06/16 10:36:14;;;;;;;6.23;2.67;;;;;;;32.88;21.97;102379.66;5033260;28;20504;-72
2022/06/16 10:38:41;;;;;;;;;;;;;;;32.09;22.12;102391.53;5033979;28;20041;-72
2022/06/16 10:41:29;;;;;;;4.95;2.08;;;;;;;32.23;22.00;102377.41;5033519;28;19917;-72
2022/06/16 10:43:56;;;;;;;3.90;2.10;;;;;;;31.59;22.62;102394.09;5033832;28;20133;-70
2022/06/16 10:46:31;;;;;;;6.38;2.33;;;;;;;30.96;22.98;102382.78;5033558;28;20041;-70
2022/06/16 10:49:00;;;;;;;2.95;1.73;;;;;;;30.75;24.59;102377.03;5031414;28;20034;-70
2022/06/16 10:51:29;;;;;;;7.87;1.70;;;;;;;31.96;22.24;102373.09;5033547;28;20033;-73
2022/06/16 10:54:14;;;;;;;7.03;2.20;;;;;;;31.72;23.76;102370.03;5031778;28;20439;-72
2022/06/16 10:56:41;;;;;;;5.80;2.50;;;;;;;31.82;22.18;102378.81;5033833;28;20044;-72
2022/06/16 10:59:21;;;;;;;5.70;2.50;;;;;;;32.30;22.75;102369.34;5031944;28;20464;-71
2022/06/16 11:01:53;;;;;;;3.28;1.80;;;;;;;31.43;23.58;102367.94;5019452;28;20038;-71
2022/06/16 11:04:24;;;;;;;6.32;2.83;;;;;;;32.78;22.06;102376.16;5030819;28;20482;-71
2022/06/16 11:06:53;;;;;;;4.22;1.77;;;;;;;33.38;21.12;102374.84;5030238;28;20099;-71
2022/06/16 11:09:25;;;;;;;3.80;2.08;;;;;;;32.79;22.68;102383.34;5023338;28;20532;-72
2022/06/16 11:11:55;;;;;;;8.25;2.80;;;;;;;33.62;21.53;102374.97;5023910;28;20033;-71
2022/06/16 11:14:30;;;;;;;;;;;;;;;33.75;20.70;102376.63;5031708;28;20075;-73
2022/06/16 11:16:56;;;;;;;3.85;1.70;;;;;;;32.25;22.68;102380.66;5032478;28;20455;-72
2022/06/16 11:19:36;;;;;;;3.28;1.73;;;;;;;33.03;21.33;102381.88;5032067;28;20114;-73
2022/06/16 11:22:15;;;;;;;4.60;2.35;;;;;;;31.89;22.79;102383.88;5013329;28;20129;-74
2022/06/16 11:24:53;;;;;;;5.35;2.25;;;;;;;31.67;23.41;102387.69;5025791;28;20591;-73
2022/06/16 11:27:18;;;;;;;3.15;1.73;;;;;;;33.13;22.10;102382.28;5032805;28;20122;-72
2022/06/16 11:29:44;;;;;;;3.90;2.28;;;;;;;33.21;21.30;102386.97;5033278;28;20037;-73
2022/06/16 11:32:22;;;;;;;8.15;2.40;;;;;;;33.24;21.53;102377.91;5012481;28;20049;-72
2022/06/16 11:34:48;;;;;;;10.90;2.25;;;;;;;32.94;21.97;102381.94;5022443;28;20025;-74
2022/06/16 11:37:38;;;;;;;4.82;1.70;;;;;;;32.58;22.04;102379.72;5033375;28;20045;-71
2022/06/16 11:40:29;;;;;;;5.60;2.30;;;;;;;31.92;22.64;102383.25;5029518;28;20037;-72
2022/06/16 11:43:10;;;;;;;3.20;2.20;;;;;;;30.81;23.43;102388.78;5029769;28;20113;-72
2022/06/16 11:45:53;;;;;;;8.00;2.60;;;;;;;30.58;24.73;102374.22;5022050;28;20601;-73
2022/06/16 11:48:37;;;;;;;7.30;2.70;;;;;;;29.93;25.00;102381.59;5026452;28;20025;-73
2022/06/16 11:51:04;;;;;;;3.85;1.85;;;;;;;30.91;24.25;102383.78;5029227;28;20025;-74
2022/06/16 11:53:54;;;;;;;5.10;2.17;;;;;;;31.99;22.39;102387.16;5027503;28;20037;-72
2022/06/16 11:56:33;;;;;;;4.10;2.05;;;;;;;33.28;21.70;102373.28;5026801;28;20034;-72
2022/06/16 11:59:22;;;;;;;6.00;1.92;;;;;;;33.96;20.56;102360.63;5025017;28;20489;-72
2022/06/16 12:02:14;;;;;;;3.60;2.15;;;;;;;33.97;21.56;102370.63;5026835;28;20049;-72
2022/06/16 12:05:07;;;;;;;7.78;1.98;;;;;;;34.20;20.56;102380.22;5028887;28;20049;-72
2022/06/16 12:08:00;;;;;;;3.53;1.90;;;;;;;32.52;22.14;102369.91;5027750;28;20041;-73